Time;durP1;ratioP1;P1;durP2;ratioP2;P2;SDS_P1;SDS_P2;PMS_P1;PMS_P2;Temp;Humidity;BMP_temperature;BMP_pressure;BME280_temperature;BME280_humidity;BME280_pressure;Samples;Min_cycle;Max_cycle;Signal;HPM_P1;HPM_P2
2022/08/30 03:00:28;;;;;;;;;;;24.40;45.70;;;;;;5892601;23;45854;-62
2022/08/30 03:02:54;;;;;;;;;;;24.40;45.80;;;;;;4886701;28;45355;-63
2022/08/30 03:05:20;;;;;;;;;;;24.40;45.80;;;;;;4884025;28;45467;-62
2022/08/30 03:07:46;;;;;;;;;;;24.40;45.70;;;;;;4890216;28;45322;-62
2022/08/30 03:10:12;;;;;;;;;;;24.40;45.70;;;;;;4888134;28;45619;-62
2022/08/30 03:12:37;;;;;;;;;;;24.40;45.70;;;;;;4888177;29;45315;-62
2022/08/30 03:15:04;;;;;;;;;;;24.40;45.50;;;;;;4892673;29;45717;-62
2022/08/30 03:17:29;;;;;;;;;;;24.40;45.60;;;;;;4893132;28;45376;-62
2022/08/30 03:19:55;;;;;;;;;;;24.40;45.60;;;;;;4893184;28;45281;-62
2022/08/30 03:22:21;;;;;;;;;;;24.50;45.50;;;;;;4894432;28;44752;-62
2022/08/30 03:24:47;;;;;;;;;;;24.50;45.50;;;;;;4891248;29;45222;-62
2022/08/30 03:27:12;;;;;;;;;;;24.50;45.50;;;;;;4893019;28;45354;-61
2022/08/30 03:29:38;;;;;;;;;;;24.50;45.50;;;;;;4894251;28;45496;-61
2022/08/30 03:32:03;;;;;;;;;;;24.50;45.50;;;;;;4893579;28;44965;-61
2022/08/30 03:34:29;;;;;;;;;;;24.50;45.40;;;;;;4890157;28;45208;-62
2022/08/30 03:36:55;;;;;;;;;;;24.50;45.40;;;;;;4891287;29;45408;-62
2022/08/30 03:39:20;;;;;;;;;;;24.50;45.40;;;;;;4891405;29;45944;-61
2022/08/30 03:41:46;;;;;;;;;;;24.40;45.50;;;;;;4895212;28;45475;-61
2022/08/30 03:44:11;;;;;;;;;;;24.40;45.50;;;;;;4895697;29;45716;-62
2022/08/30 03:46:37;;;;;;;;;;;24.40;45.50;;;;;;4876467;29;45397;-62
2022/08/30 03:49:03;;;;;;;;;;;24.40;45.40;;;;;;4893345;28;45572;-61
2022/08/30 03:51:28;;;;;;;;;;;24.40;45.30;;;;;;4893140;28;45091;-60
2022/08/30 03:53:54;;;;;;;;;;;24.40;45.50;;;;;;4895462;28;45216;-61
2022/08/30 03:56:19;;;;;;;;;;;24.40;45.40;;;;;;4895151;29;44825;-60
2022/08/30 03:58:45;;;;;;;;;;;24.40;45.40;;;;;;4894550;29;45378;-60
2022/08/30 04:01:10;;;;;;;;;;;24.40;45.40;;;;;;4888100;28;45279;-62
2022/08/30 04:03:36;;;;;;;;;;;24.40;45.40;;;;;;4891294;28;44687;-62
2022/08/30 04:06:02;;;;;;;;;;;24.40;45.40;;;;;;4894774;28;44930;-62
2022/08/30 04:08:27;;;;;;;;;;;24.40;45.40;;;;;;4894055;29;45807;-62
2022/08/30 04:10:53;;;;;;;;;;;24.40;45.40;;;;;;4895357;28;45174;-61
2022/08/30 04:13:19;;;;;;;;;;;24.40;45.50;;;;;;4892554;29;45183;-62
2022/08/30 04:15:45;;;;;;;;;;;24.30;45.50;;;;;;4892938;29;45246;-62
2022/08/30 04:18:10;;;;;;;;;;;24.40;45.50;;;;;;4894044;28;45402;-61
2022/08/30 04:20:36;;;;;;;;;;;24.30;45.50;;;;;;4879165;28;44642;-62
2022/08/30 04:23:02;;;;;;;;;;;24.30;45.50;;;;;;4895974;29;45412;-62
2022/08/30 04:25:28;;;;;;;;;;;24.30;45.50;;;;;;4895527;28;44884;-62
2022/08/30 04:27:54;;;;;;;;;;;24.30;45.40;;;;;;4895332;29;46490;-62
2022/08/30 04:30:20;;;;;;;;;;;24.30;45.40;;;;;;4890473;28;45190;-61
2022/08/30 04:32:45;;;;;;;;;;;24.30;45.40;;;;;;4894228;28;45168;-62
2022/08/30 04:35:11;;;;;;;;;;;24.30;45.40;;;;;;4894611;29;45175;-61
2022/08/30 04:37:37;;;;;;;;;;;24.30;45.30;;;;;;4879209;29;45495;-62
2022/08/30 04:40:02;;;;;;;;;;;24.30;45.40;;;;;;4893161;29;45089;-63
2022/08/30 04:42:30;;;;;;;;;;;24.30;45.40;;;;;;4891920;28;45525;-62
2022/08/30 04:44:56;;;;;;;;;;;24.30;45.40;;;;;;4877973;28;45175;-62
2022/08/30 04:47:21;;;;;;;;;;;24.30;45.40;;;;;;4873022;28;48006;-62
2022/08/30 04:49:47;;;;;;;;;;;24.30;45.40;;;;;;4893069;29;45603;-62
2022/08/30 04:52:12;;;;;;;;;;;24.30;45.30;;;;;;4893456;29;44808;-62
2022/08/30 04:54:38;;;;;;;;;;;24.30;45.30;;;;;;4888285;29;45562;-62
2022/08/30 04:57:04;;;;;;;;;;;24.30;45.40;;;;;;4891923;28;46454;-61
2022/08/30 04:59:29;;;;;;;;;;;24.30;45.40;;;;;;4890998;29;45303;-62
2022/08/30 05:01:55;;;;;;;;;;;24.30;45.50;;;;;;4889736;28;45217;-62
2022/08/30 05:04:20;;;;;;;;;;;24.30;45.40;;;;;;4892024;28;45547;-62
2022/08/30 05:06:46;;;;;;;;;;;24.30;45.40;;;;;;4893834;29;45431;-62
2022/08/30 05:09:11;;;;;;;;;;;24.30;45.50;;;;;;4875068;29;45068;-62
2022/08/30 05:11:37;;;;;;;;;;;24.30;45.50;;;;;;4892709;28;45409;-62
2022/08/30 05:14:03;;;;;;;;;;;24.30;45.60;;;;;;4894470;29;44839;-62
2022/08/30 05:16:28;;;;;;;;;;;24.30;45.60;;;;;;4874026;29;45512;-62
2022/08/30 05:18:54;;;;;;;;;;;24.20;45.70;;;;;;4876795;29;45364;-62
2022/08/30 05:21:24;;;;;;;;;;;24.20;45.70;;;;;;4888857;28;45364;-61
2022/08/30 05:23:50;;;;;;;;;;;24.20;45.90;;;;;;4875414;29;45607;-62
2022/08/30 05:26:16;;;;;;;;;;;24.20;46.60;;;;;;4875049;29;45517;-62
2022/08/30 05:28:42;;;;;;;;;;;24.20;45.90;;;;;;4873712;29;45162;-62
2022/08/30 05:31:11;;;;;;;;;;;24.20;46.00;;;;;;4888683;28;45068;-62
2022/08/30 05:33:37;;;;;;;;;;;24.30;46.00;;;;;;4877291;29;45630;-62
2022/08/30 05:36:05;;;;;;;;;;;24.30;45.90;;;;;;4848959;29;46490;-61
2022/08/30 05:38:30;;;;;;;;;;;24.30;45.90;;;;;;4892228;28;45442;-62
2022/08/30 05:40:56;;;;;;;;;;;24.40;45.90;;;;;;4876659;29;45428;-61
2022/08/30 05:43:21;;;;;;;;;;;24.30;45.90;;;;;;4876436;29;45377;-62
2022/08/30 05:45:47;;;;;;;;;;;24.40;45.90;;;;;;4894048;29;45187;-62
2022/08/30 05:48:12;;;;;;;;;;;24.40;45.90;;;;;;4892605;28;45336;-62
2022/08/30 05:50:38;;;;;;;;;;;24.40;45.80;;;;;;4893389;28;45827;-62
2022/08/30 05:53:03;;;;;;;;;;;24.50;45.90;;;;;;4893558;28;45223;-61
2022/08/30 05:55:29;;;;;;;;;;;24.50;45.80;;;;;;4893541;28;45572;-62
2022/08/30 05:57:55;;;;;;;;;;;24.50;45.60;;;;;;4890445;29;45760;-62
2022/08/30 06:00:20;;;;;;;;;;;24.70;45.40;;;;;;4882837;29;45171;-62
2022/08/30 06:02:46;;;;;;;;;;;24.80;45.20;;;;;;4854167;29;45336;-62
2022/08/30 06:05:11;;;;;;;;;;;24.90;45.00;;;;;;4868568;29;45603;-62
2022/08/30 06:07:37;;;;;;;;;;;24.90;44.90;;;;;;4871546;29;45042;-62
2022/08/30 06:10:03;;;;;;;;;;;25.00;44.90;;;;;;4870326;29;45752;-62
2022/08/30 06:12:28;;;;;;;;;;;25.00;44.90;;;;;;4870124;29;45784;-62
2022/08/30 06:14:54;;;;;;;;;;;25.00;44.80;;;;;;4870615;29;46278;-62
2022/08/30 06:17:20;;;;;;;;;;;25.00;44.80;;;;;;4870514;29;45033;-62
2022/08/30 06:19:45;;;;;;;;;;;25.10;44.90;;;;;;4852018;29;45829;-62
2022/08/30 06:22:11;;;;;;;;;;;25.10;45.60;;;;;;4867351;29;45302;-62
2022/08/30 06:24:37;;;;;;;;;;;25.10;44.90;;;;;;4853825;29;45592;-62
2022/08/30 06:27:03;;;;;;;;;;;25.10;44.90;;;;;;4871233;29;45266;-62
2022/08/30 06:29:28;;;;;;;;;;;25.20;44.90;;;;;;4870610;29;45362;-62
2022/08/30 06:31:55;;;;;;;;;;;25.20;44.80;;;;;;4854573;29;45615;-62
2022/08/30 06:34:21;;;;;;;;;;;25.30;44.80;;;;;;4870897;29;45849;-62
2022/08/30 06:36:46;;;;;;;;;;;25.30;44.70;;;;;;4851885;29;45193;-62
2022/08/30 06:39:12;;;;;;;;;;;25.30;44.70;;;;;;4870350;29;45015;-62
2022/08/30 06:41:37;;;;;;;;;;;25.40;44.80;;;;;;4852273;29;45508;-62
2022/08/30 06:44:03;;;;;;;;;;;25.40;45.00;;;;;;4870236;29;45635;-63
2022/08/30 06:46:31;;;;;;;;;;;25.30;45.00;;;;;;4870594;29;45600;-61
2022/08/30 06:48:56;;;;;;;;;;;25.30;45.10;;;;;;4872194;29;45274;-62
2022/08/30 06:51:22;;;;;;;;;;;25.20;45.40;;;;;;4868744;29;45215;-62
2022/08/30 06:53:48;;;;;;;;;;;25.20;45.40;;;;;;4853051;29;46059;-63
2022/08/30 06:56:14;;;;;;;;;;;25.20;45.70;;;;;;4874651;29;46129;-62
2022/08/30 06:58:40;;;;;;;;;;;25.10;45.90;;;;;;4875196;29;44921;-62
2022/08/30 07:01:05;;;;;;;;;;;25.10;46.00;;;;;;4876232;29;45633;-62
2022/08/30 07:03:31;;;;;;;;;;;25.10;46.20;;;;;;4844266;29;46289;-62
2022/08/30 07:05:56;;;;;;;;;;;25.10;46.10;;;;;;4892986;29;46852;-62
2022/08/30 07:08:22;;;;;;;;;;;25.10;46.10;;;;;;4892434;29;45000;-62
2022/08/30 07:10:48;;;;;;;;;;;25.10;46.10;;;;;;4873239;29;45440;-62
2022/08/30 07:13:13;;;;;;;;;;;25.20;46.10;;;;;;4870276;29;46843;-62
2022/08/30 07:15:40;;;;;;;;;;;25.10;46.00;;;;;;4891754;29;45476;-62
2022/08/30 07:20:49;;;;;;;;;;;25.20;46.10;;;;;;4876074;28;45387;-62
2022/08/30 07:23:15;;;;;;;;;;;25.20;46.20;;;;;;4891522;29;45542;-63
2022/08/30 07:25:40;;;;;;;;;;;25.20;46.20;;;;;;4892908;29;45328;-63
2022/08/30 07:28:06;;;;;;;;;;;25.20;46.20;;;;;;4892703;28;45559;-63
2022/08/30 07:30:32;;;;;;;;;;;25.20;46.20;;;;;;4877485;29;45474;-62
2022/08/30 07:32:57;;;;;;;;;;;25.30;46.20;;;;;;4894295;29;46137;-63
2022/08/30 07:35:23;;;;;;;;;;;25.30;46.20;;;;;;4895408;29;44723;-63
2022/08/30 07:37:49;;;;;;;;;;;25.30;46.20;;;;;;4876524;28;45416;-62
2022/08/30 07:40:14;;;;;;;;;;;25.30;46.10;;;;;;4889274;28;45020;-62
2022/08/30 07:42:40;;;;;;;;;;;25.30;46.10;;;;;;4876760;29;46749;-62
2022/08/30 07:45:07;;;;;;;;;;;25.30;46.10;;;;;;4866927;29;45327;-63
2022/08/30 07:47:32;;;;;;;;;;;25.30;46.10;;;;;;4872806;29;46157;-63
2022/08/30 07:49:58;;;;;;;;;;;25.30;46.10;;;;;;4884657;28;45599;-62
2022/08/30 07:52:24;;;;;;;;;;;25.40;46.10;;;;;;4877589;29;45520;-62
2022/08/30 07:54:49;;;;;;;;;;;25.40;46.10;;;;;;4875961;29;44960;-62
2022/08/30 07:57:15;;;;;;;;;;;25.40;46.10;;;;;;4896760;29;45233;-61
2022/08/30 07:59:40;;;;;;;;;;;25.40;46.00;;;;;;4895078;28;45541;-61
2022/08/30 08:02:06;;;;;;;;;;;25.40;46.00;;;;;;4893812;29;45394;-62
2022/08/30 08:04:33;;;;;;;;;;;25.50;46.10;;;;;;4895114;29;44910;-61
2022/08/30 08:06:58;;;;;;;;;;;25.50;46.00;;;;;;4894301;29;45537;-63
2022/08/30 08:09:24;;;;;;;;;;;25.50;46.00;;;;;;4895299;28;45683;-62
2022/08/30 08:11:49;;;;;;;;;;;25.50;46.10;;;;;;4895905;28;45413;-62
2022/08/30 08:14:15;;;;;;;;;;;25.50;46.00;;;;;;4874889;29;45676;-63
2022/08/30 08:16:43;;;;;;;;;;;25.50;46.00;;;;;;4878128;29;45494;-61
2022/08/30 08:19:09;;;;;;;;;;;25.50;46.10;;;;;;4876411;29;45159;-62
2022/08/30 08:21:35;;;;;;;;;;;25.60;46.00;;;;;;4895126;28;45217;-62
2022/08/30 08:24:00;;;;;;;;;;;25.60;46.00;;;;;;4875741;29;45273;-62
2022/08/30 08:26:26;;;;;;;;;;;25.60;45.90;;;;;;4891137;28;45260;-62
2022/08/30 08:28:51;;;;;;;;;;;25.70;45.90;;;;;;4875734;28;45708;-62
2022/08/30 08:31:18;;;;;;;;;;;25.70;45.80;;;;;;4895143;28;46814;-62
2022/08/30 08:33:43;;;;;;;;;;;25.70;45.80;;;;;;4895786;29;44648;-62
2022/08/30 08:36:09;;;;;;;;;;;25.80;45.80;;;;;;4875134;29;45654;-62
2022/08/30 08:38:35;;;;;;;;;;;25.80;45.70;;;;;;4896005;29;46122;-61
2022/08/30 08:41:06;;;;;;;;;;;25.80;45.70;;;;;;4892680;28;45569;-62
2022/08/30 08:43:32;;;;;;;;;;;25.80;45.70;;;;;;4874476;29;45215;-62
2022/08/30 08:46:16;;;;;;;;;;;25.90;45.60;;;;;;4868699;29;45465;-63
2022/08/30 08:48:45;;;;;;;;;;;25.90;45.60;;;;;;4891941;29;45351;-62
2022/08/30 08:53:58;;;;;;;;;;;25.90;45.60;;;;;;4875760;28;45577;-61
2022/08/30 08:56:23;;;;;;;;;;;25.90;45.70;;;;;;4889867;28;44780;-62
2022/08/30 08:58:53;;;;;;;;;;;26.00;45.60;;;;;;4878781;29;45405;-62
2022/08/30 09:01:19;;;;;;;;;;;26.00;45.60;;;;;;4871726;29;46520;-62
2022/08/30 09:03:45;;;;;;;;;;;26.00;45.60;;;;;;4894259;28;45266;-61
2022/08/30 09:06:31;;;;;;;;;;;26.00;45.50;;;;;;4890442;28;45268;-61
2022/08/30 09:08:57;;;;;;;;;;;26.00;45.50;;;;;;4879076;28;45096;-61
2022/08/30 09:11:24;;;;;;;;;;;26.00;45.40;;;;;;4891276;29;45460;-62
2022/08/30 09:13:49;;;;;;;;;;;26.10;45.50;;;;;;4893908;28;45241;-62
2022/08/30 09:16:34;;;;;;;;;;;26.10;45.40;;;;;;4887673;28;45024;-62
2022/08/30 09:18:59;;;;;;;;;;;26.10;45.40;;;;;;4886694;29;45808;-62
2022/08/30 09:21:25;;;;;;;;;;;26.10;45.30;;;;;;4888794;28;45549;-62
2022/08/30 09:23:55;;;;;;;;;;;26.20;45.40;;;;;;4877974;29;45117;-63
2022/08/30 09:26:28;;;;;;;;;;;26.20;45.30;;;;;;4892156;29;44951;-62
2022/08/30 09:28:54;;;;;;;;;;;26.20;45.10;;;;;;4887448;29;45471;-63
2022/08/30 09:31:23;;;;;;;;;;;26.20;45.00;;;;;;4891591;28;45461;-62
2022/08/30 09:34:05;;;;;;;;;;;26.20;45.00;;;;;;4897166;28;45255;-62
2022/08/30 09:36:40;;;;;;;;;;;26.20;45.10;;;;;;4881332;28;45605;-63
2022/08/30 09:39:24;;;;;;;;;;;26.20;44.90;;;;;;4884021;29;45228;-62
2022/08/30 09:41:50;;;;;;;;;;;26.20;44.80;;;;;;4889208;28;45851;-62
2022/08/30 09:44:16;;;;;;;;;;;26.20;44.80;;;;;;4889430;28;45612;-62
2022/08/30 09:46:47;;;;;;;;;;;26.30;44.60;;;;;;4888447;28;45179;-62
2022/08/30 09:49:31;;;;;;;;;;;26.30;44.60;;;;;;4889892;29;45959;-63
2022/08/30 09:52:16;;;;;;;;;;;26.30;44.50;;;;;;4888296;29;45586;-62
2022/08/30 09:54:41;;;;;;;;;;;26.30;44.60;;;;;;4883159;28;45284;-63
2022/08/30 09:57:25;;;;;;;;;;;26.30;44.50;;;;;;4882526;28;44846;-63
2022/08/30 10:00:09;;;;;;;;;;;26.40;44.30;;;;;;4887501;28;45597;-63
2022/08/30 10:02:37;;;;;;;;;;;26.40;44.30;;;;;;4888773;29;45607;-62
2022/08/30 10:05:11;;;;;;;;;;;26.40;44.10;;;;;;4887317;28;45306;-62
2022/08/30 10:07:52;;;;;;;;;;;26.40;44.10;;;;;;4872217;28;44674;-63
2022/08/30 10:10:20;;;;;;;;;;;26.40;44.00;;;;;;4888700;29;45518;-62
2022/08/30 10:12:53;;;;;;;;;;;26.50;44.10;;;;;;4868814;29;45366;-63
2022/08/30 10:15:26;;;;;;;;;;;26.50;44.00;;;;;;4885890;28;45504;-62
2022/08/30 10:18:03;;;;;;;;;;;26.50;43.90;;;;;;4887929;29;45130;-63
2022/08/30 10:20:48;;;;;;;;;;;26.50;43.60;;;;;;4861893;28;45449;-63
2022/08/30 10:23:14;;;;;;;;;;;26.60;43.30;;;;;;4888293;29;45577;-63
2022/08/30 10:25:58;;;;;;;;;;;26.60;43.10;;;;;;4888449;28;45550;-62
2022/08/30 10:28:30;;;;;;;;;;;26.60;43.00;;;;;;4887512;29;45576;-62
2022/08/30 10:30:56;;;;;;;;;;;26.60;43.00;;;;;;4892856;28;45246;-63
2022/08/30 10:33:23;;;;;;;;;;;26.60;42.90;;;;;;4872755;29;46450;-63
2022/08/30 10:35:53;;;;;;;;;;;26.60;42.90;;;;;;4891072;28;45519;-63
2022/08/30 10:38:35;;;;;;;;;;;26.60;43.10;;;;;;4891719;29;45624;-62
2022/08/30 10:41:13;;;;;;;;;;;26.70;42.80;;;;;;4874766;29;45499;-62
2022/08/30 10:43:54;;;;;;;;;;;26.70;42.70;;;;;;4890903;28;45605;-63
2022/08/30 10:46:23;;;;;;;;;;;26.70;42.50;;;;;;4892462;28;45237;-63
2022/08/30 10:48:48;;;;;;;;;;;26.80;42.10;;;;;;4893092;29;45306;-63
2022/08/30 10:51:16;;;;;;;;;;;26.80;41.80;;;;;;4892179;28;45197;-63
2022/08/30 10:54:08;;;;;;;;;;;26.80;41.80;;;;;;4874833;29;45548;-63
2022/08/30 10:56:33;;;;;;;;;;;26.90;41.90;;;;;;4881501;29;45415;-63
2022/08/30 10:58:59;;;;;;;;;;;26.90;41.30;;;;;;4891937;29;45162;-63
2022/08/30 11:01:41;;;;;;;;;;;26.90;41.50;;;;;;4892033;29;46318;-63
2022/08/30 11:04:10;;;;;;;;;;;27.00;41.70;;;;;;4873404;29;45311;-62
2022/08/30 11:06:38;;;;;;;;;;;26.90;41.70;;;;;;4889824;28;45670;-63
2022/08/30 11:09:03;;;;;;;;;;;27.00;40.30;;;;;;4892179;29;45297;-62
2022/08/30 11:11:52;;;;;;;;;;;27.00;40.40;;;;;;4892422;28;45311;-62
2022/08/30 11:14:18;;;;;;;;;;;27.00;40.10;;;;;;4867977;29;47930;-62
2022/08/30 11:16:44;;;;;;;;;;;27.00;39.20;;;;;;4890022;28;45612;-62
2022/08/30 11:19:26;;;;;;;;;;;27.10;38.80;;;;;;4873900;29;44822;-62
2022/08/30 11:21:52;;;;;;;;;;;27.10;39.00;;;;;;4871125;29;45609;-62
2022/08/30 11:24:20;;;;;;;;;;;27.10;38.50;;;;;;4874185;29;46104;-63
2022/08/30 11:26:47;;;;;;;;;;;27.20;38.10;;;;;;4874349;29;45403;-63
2022/08/30 11:29:24;;;;;;;;;;;27.20;38.10;;;;;;4891703;29;44921;-62
2022/08/30 11:31:50;;;;;;;;;;;27.20;38.30;;;;;;4892025;28;45238;-63
2022/08/30 11:34:35;;;;;;;;;;;27.20;38.20;;;;;;4888397;28;46464;-63
2022/08/30 11:37:01;;;;;;;;;;;27.20;38.20;;;;;;4890960;28;45013;-63
2022/08/30 11:39:42;;;;;;;;;;;27.30;37.70;;;;;;4891788;29;45416;-63
2022/08/30 11:42:08;;;;;;;;;;;27.30;37.20;;;;;;4892441;29;45452;-63
2022/08/30 11:44:34;;;;;;;;;;;27.30;36.70;;;;;;4871260;28;45417;-63
2022/08/30 11:47:00;;;;;;;;;;;27.30;36.70;;;;;;4891266;28;45259;-63
2022/08/30 11:49:28;;;;;;;;;;;27.40;36.30;;;;;;4889748;29;45254;-63
2022/08/30 11:52:13;;;;;;;;;;;27.40;36.20;;;;;;4874158;29;45627;-63
2022/08/30 11:54:41;;;;;;;;;;;27.40;36.10;;;;;;4890992;29;45334;-63
2022/08/30 11:57:25;;;;;;;;;;;27.40;36.20;;;;;;4891932;29;45057;-63
2022/08/30 12:00:07;;;;;;;;;;;27.40;36.20;;;;;;4890638;28;46163;-62
2022/08/30 12:02:51;;;;;;;;;;;27.50;36.30;;;;;;4888197;28;45909;-63
2022/08/30 12:05:36;;;;;;;;;;;27.50;36.40;;;;;;4889721;28;45479;-63
2022/08/30 12:08:03;;;;;;;;;;;27.50;36.50;;;;;;4888925;28;45456;-62
2022/08/30 12:10:38;;;;;;;;;;;27.50;36.20;;;;;;4873214;29;45554;-63
2022/08/30 12:13:04;;;;;;;;;;;27.50;35.90;;;;;;4872315;29;45014;-62
2022/08/30 12:15:49;;;;;;;;;;;27.50;36.10;;;;;;4888445;29;46210;-63
2022/08/30 12:18:28;;;;;;;;;;;27.50;35.80;;;;;;4890627;28;46207;-63
2022/08/30 12:20:55;;;;;;;;;;;27.60;35.70;;;;;;4875381;29;45471;-63
2022/08/30 12:23:39;;;;;;;;;;;27.60;35.80;;;;;;4889851;28;45308;-62
2022/08/30 12:26:08;;;;;;;;;;;27.60;36.00;;;;;;4891513;29;46822;-63
2022/08/30 12:28:34;;;;;;;;;;;27.60;36.10;;;;;;4869265;29;45824;-63
2022/08/30 12:31:13;;;;;;;;;;;27.60;36.30;;;;;;4874272;29;44739;-63
2022/08/30 12:33:46;;;;;;;;;;;27.60;36.30;;;;;;4858836;29;45516;-62
2022/08/30 12:36:13;;;;;;;;;;;27.60;36.40;;;;;;4870408;29;45447;-63
2022/08/30 12:38:38;;;;;;;;;;;27.60;36.40;;;;;;4872158;29;46131;-63
2022/08/30 12:41:04;;;;;;;;;;;27.60;36.40;;;;;;4889985;28;45831;-62
2022/08/30 12:43:33;;;;;;;;;;;27.60;36.20;;;;;;4891923;29;45217;-62
2022/08/30 12:46:00;;;;;;;;;;;27.70;36.40;;;;;;4873538;29;46562;-63
2022/08/30 12:48:26;;;;;;;;;;;27.70;35.90;;;;;;4875369;29;45359;-61
2022/08/30 12:50:56;;;;;;;;;;;27.70;35.90;;;;;;4870525;29;45228;-61
2022/08/30 12:53:21;;;;;;;;;;;27.80;36.10;;;;;;4873293;29;45245;-62
2022/08/30 12:56:00;;;;;;;;;;;27.80;36.10;;;;;;4874863;29;45911;-61
2022/08/30 12:58:52;;;;;;;;;;;27.80;36.00;;;;;;4873738;29;45170;-62
2022/08/30 13:01:26;;;;;;;;;;;27.80;36.00;;;;;;4888193;29;45065;-60
2022/08/30 13:04:02;;;;;;;;;;;27.80;36.10;;;;;;4875748;29;44696;-63
2022/08/30 13:06:46;;;;;;;;;;;27.80;36.20;;;;;;4867916;29;46985;-61
2022/08/30 13:09:23;;;;;;;;;;;27.80;36.10;;;;;;4887489;28;45540;-61
2022/08/30 13:11:48;;;;;;;;;;;27.80;36.40;;;;;;4873850;29;45573;-60
2022/08/30 13:14:40;;;;;;;;;;;27.80;36.00;;;;;;4891997;29;45375;-61
2022/08/30 13:17:06;;;;;;;;;;;27.80;35.70;;;;;;4866706;29;45584;-61
2022/08/30 13:19:33;;;;;;;;;;;27.90;35.90;;;;;;4856733;28;45167;-61
2022/08/30 13:21:58;;;;;;;;;;;27.90;35.60;;;;;;4890197;28;45182;-62
2022/08/30 13:24:24;;;;;;;;;;;27.90;35.70;;;;;;4892047;29;45502;-62
2022/08/30 13:26:49;;;;;;;;;;;27.90;35.40;;;;;;4872701;29;46421;-61
2022/08/30 13:29:16;;;;;;;;;;;28.00;35.30;;;;;;4886454;28;45621;-61
2022/08/30 13:31:42;;;;;;;;;;;28.00;35.10;;;;;;4867746;29;45703;-62
2022/08/30 13:34:07;;;;;;;;;;;28.00;35.10;;;;;;4871764;29;45293;-62
2022/08/30 13:36:34;;;;;;;;;;;28.00;35.30;;;;;;4873952;29;45732;-61
2022/08/30 13:39:00;;;;;;;;;;;28.00;35.00;;;;;;4872959;29;44851;-61
2022/08/30 13:41:25;;;;;;;;;;;28.00;34.80;;;;;;4871947;29;45174;-61
2022/08/30 13:43:51;;;;;;;;;;;28.00;34.90;;;;;;4862062;29;45494;-59
2022/08/30 13:46:17;;;;;;;;;;;28.00;34.70;;;;;;4868899;28;45647;-61
2022/08/30 13:48:43;;;;;;;;;;;28.00;34.60;;;;;;4869678;29;45398;-62
2022/08/30 13:51:08;;;;;;;;;;;28.10;34.70;;;;;;4887121;28;46387;-61
2022/08/30 13:53:34;;;;;;;;;;;28.00;34.80;;;;;;4857188;29;45489;-62
2022/08/30 13:56:00;;;;;;;;;;;28.10;34.70;;;;;;4873267;29;45516;-62
2022/08/30 13:58:25;;;;;;;;;;;28.10;34.60;;;;;;4871502;29;45061;-61
2022/08/30 14:00:51;;;;;;;;;;;28.10;35.10;;;;;;4871473;28;45353;-62
2022/08/30 14:03:16;;;;;;;;;;;28.10;34.40;;;;;;4872521;29;45459;-62
2022/08/30 14:05:42;;;;;;;;;;;28.10;34.70;;;;;;4877129;29;46353;-61
2022/08/30 14:08:08;;;;;;;;;;;28.10;34.60;;;;;;4875425;29;45567;-62
2022/08/30 14:10:34;;;;;;;;;;;28.20;34.90;;;;;;4877327;29;45620;-61
2022/08/30 14:13:00;;;;;;;;;;;28.20;35.00;;;;;;4874883;29;45540;-61
2022/08/30 14:15:25;;;;;;;;;;;28.20;35.10;;;;;;4874634;28;46173;-61
2022/08/30 14:17:51;;;;;;;;;;;28.20;35.20;;;;;;4877051;29;45568;-61
2022/08/30 14:20:17;;;;;;;;;;;28.30;35.20;;;;;;4876816;28;45685;-61
2022/08/30 14:22:42;;;;;;;;;;;28.30;35.20;;;;;;4876112;29;45443;-62
2022/08/30 14:25:08;;;;;;;;;;;28.30;35.30;;;;;;4875030;29;45439;-62
2022/08/30 14:27:33;;;;;;;;;;;28.30;35.20;;;;;;4892380;28;45702;-62
2022/08/30 14:29:59;;;;;;;;;;;28.30;35.30;;;;;;4859981;29;44714;-62
2022/08/30 14:32:24;;;;;;;;;;;28.30;35.10;;;;;;4873661;29;45887;-62
2022/08/30 14:34:50;;;;;;;;;;;28.30;35.80;;;;;;4878354;29;46443;-61
2022/08/30 14:37:15;;;;;;;;;;;28.30;35.30;;;;;;4858972;29;45462;-61
2022/08/30 14:39:41;;;;;;;;;;;28.30;35.30;;;;;;4893735;28;45142;-63
2022/08/30 14:42:07;;;;;;;;;;;28.30;35.30;;;;;;4894259;29;45472;-63
2022/08/30 14:44:32;;;;;;;;;;;28.30;35.50;;;;;;4874797;29;45986;-63
2022/08/30 14:46:59;;;;;;;;;;;28.40;35.40;;;;;;4893525;29;44713;-64
2022/08/30 14:49:24;;;;;;;;;;;28.40;35.50;;;;;;4876019;29;44711;-61
2022/08/30 14:51:50;;;;;;;;;;;28.30;35.20;;;;;;4859554;29;45384;-62
2022/08/30 14:54:34;;;;;;;;;;;28.30;35.20;;;;;;4874917;29;46024;-62
2022/08/30 14:56:59;;;;;;;;;;;28.40;35.30;;;;;;4890430;28;44663;-62
2022/08/30 14:59:25;;;;;;;;;;;28.40;35.00;;;;;;4875129;28;45306;-62
2022/08/30 15:01:51;;;;;;;;;;;28.40;35.00;;;;;;4880760;28;45128;-62
2022/08/30 15:04:16;;;;;;;;;;;28.40;35.00;;;;;;4889473;28;45344;-61
2022/08/30 15:06:42;;;;;;;;;;;28.40;34.90;;;;;;4875277;29;45084;-61
2022/08/30 15:09:08;;;;;;;;;;;28.40;34.70;;;;;;4893372;28;45890;-63
2022/08/30 15:11:34;;;;;;;;;;;28.50;34.80;;;;;;4891840;28;45418;-61
2022/08/30 15:13:59;;;;;;;;;;;28.50;34.70;;;;;;4886832;28;45314;-62
2022/08/30 15:16:26;;;;;;;;;;;28.50;34.70;;;;;;4886337;29;45475;-62
2022/08/30 15:18:51;;;;;;;;;;;28.50;34.70;;;;;;4874233;29;45219;-61
2022/08/30 15:21:21;;;;;;;;;;;28.50;34.80;;;;;;4892784;29;45607;-62
2022/08/30 15:23:47;;;;;;;;;;;28.50;34.60;;;;;;4889082;28;46255;-62
2022/08/30 15:26:13;;;;;;;;;;;28.50;34.70;;;;;;4892953;28;45402;-62
2022/08/30 15:28:38;;;;;;;;;;;28.50;34.90;;;;;;4892697;28;45066;-61
2022/08/30 15:31:04;;;;;;;;;;;28.50;34.60;;;;;;4890219;28;45480;-62
2022/08/30 15:33:29;;;;;;;;;;;28.50;34.60;;;;;;4876528;29;46293;-61
2022/08/30 15:35:58;;;;;;;;;;;28.50;34.60;;;;;;4891494;29;46045;-62
2022/08/30 15:38:23;;;;;;;;;;;28.60;34.40;;;;;;4875406;29;45513;-62
2022/08/30 15:40:49;;;;;;;;;;;28.60;34.30;;;;;;4892646;28;45102;-61
2022/08/30 15:43:15;;;;;;;;;;;28.60;34.40;;;;;;4875842;29;48481;-62
2022/08/30 15:45:40;;;;;;;;;;;28.60;34.40;;;;;;4891499;29;45707;-61
2022/08/30 15:48:05;;;;;;;;;;;28.60;34.40;;;;;;4891487;28;44754;-62
2022/08/30 15:50:31;;;;;;;;;;;28.60;34.50;;;;;;4892654;28;44956;-62
2022/08/30 15:52:56;;;;;;;;;;;28.60;34.50;;;;;;4873086;29;46545;-62
2022/08/30 15:55:22;;;;;;;;;;;28.60;34.50;;;;;;4874702;29;45389;-62
2022/08/30 15:57:48;;;;;;;;;;;28.60;34.80;;;;;;4894507;28;45627;-62
2022/08/30 16:00:13;;;;;;;;;;;28.60;34.40;;;;;;4892358;28;44841;-62
2022/08/30 16:02:39;;;;;;;;;;;28.60;34.60;;;;;;4888906;28;47134;-62
2022/08/30 16:05:05;;;;;;;;;;;28.50;34.50;;;;;;4892016;29;45439;-61
2022/08/30 16:07:30;;;;;;;;;;;28.50;34.60;;;;;;4874823;29;44647;-62
2022/08/30 16:09:56;;;;;;;;;;;28.50;34.50;;;;;;4874107;29;45406;-64
2022/08/30 16:12:21;;;;;;;;;;;28.50;34.60;;;;;;4872963;29;45621;-62
2022/08/30 16:14:47;;;;;;;;;;;28.50;34.70;;;;;;4874781;29;44986;-62
2022/08/30 16:17:12;;;;;;;;;;;28.50;34.70;;;;;;4873784;29;45210;-62
2022/08/30 16:19:38;;;;;;;;;;;28.50;34.80;;;;;;4856520;29;45658;-63
2022/08/30 16:22:04;;;;;;;;;;;28.50;34.80;;;;;;4893580;28;45717;-62
2022/08/30 16:24:29;;;;;;;;;;;28.50;34.70;;;;;;4890438;28;45214;-62
2022/08/30 16:26:55;;;;;;;;;;;28.50;34.80;;;;;;4888586;28;45586;-62
2022/08/30 16:29:20;;;;;;;;;;;28.50;34.80;;;;;;4886648;28;44981;-62
2022/08/30 16:31:46;;;;;;;;;;;28.50;34.80;;;;;;4891111;28;46707;-61
2022/08/30 16:34:12;;;;;;;;;;;28.50;34.80;;;;;;4870436;29;45104;-62
2022/08/30 16:36:38;;;;;;;;;;;28.50;35.00;;;;;;4870946;29;45632;-62
2022/08/30 16:39:04;;;;;;;;;;;28.50;35.00;;;;;;4892165;28;45455;-63
2022/08/30 16:41:29;;;;;;;;;;;28.50;35.40;;;;;;4859110;29;45347;-62
2022/08/30 16:43:55;;;;;;;;;;;28.40;34.80;;;;;;4888811;28;45741;-62
2022/08/30 16:46:21;;;;;;;;;;;28.50;35.00;;;;;;4890342;29;45037;-62
2022/08/30 16:48:46;;;;;;;;;;;28.50;34.70;;;;;;4873023;29;45884;-62
2022/08/30 16:51:13;;;;;;;;;;;28.40;34.60;;;;;;4868639;29;45863;-62
2022/08/30 16:53:38;;;;;;;;;;;28.50;34.90;;;;;;4855706;28;45035;-62
2022/08/30 16:56:05;;;;;;;;;;;28.50;34.70;;;;;;4859215;29;45327;-62
2022/08/30 16:58:31;;;;;;;;;;;28.50;34.80;;;;;;4874855;29;45438;-62
2022/08/30 17:00:56;;;;;;;;;;;28.50;34.70;;;;;;4889196;28;46103;-62
2022/08/30 17:03:22;;;;;;;;;;;28.50;34.70;;;;;;4872923;29;45260;-62
2022/08/30 17:05:47;;;;;;;;;;;28.40;34.70;;;;;;4871422;29;45498;-62
2022/08/30 17:08:13;;;;;;;;;;;28.40;34.80;;;;;;4890456;29;46312;-61
2022/08/30 17:10:39;;;;;;;;;;;28.40;34.90;;;;;;4890953;29;45398;-62
2022/08/30 17:13:05;;;;;;;;;;;28.40;35.00;;;;;;4872852;29;46621;-61
2022/08/30 17:15:30;;;;;;;;;;;28.40;35.10;;;;;;4871264;29;44981;-62
2022/08/30 17:17:56;;;;;;;;;;;28.40;35.30;;;;;;4890672;28;45291;-61
2022/08/30 17:20:21;;;;;;;;;;;28.30;35.30;;;;;;4871434;28;45345;-62
2022/08/30 17:22:47;;;;;;;;;;;28.30;35.50;;;;;;4873748;29;45330;-62
2022/08/30 17:25:13;;;;;;;;;;;28.30;35.50;;;;;;4870255;29;46069;-62